createdAt,value
2016-11-13T00:00:44.567Z,2.98
2016-11-13T00:01:58.799Z,3.05
2016-11-13T00:03:13.743Z,3.03
2016-11-13T00:04:27.803Z,3.03
2016-11-13T00:05:43.442Z,2.98
2016-11-13T00:06:57.918Z,2.97
2016-11-13T00:08:15.451Z,3.01
2016-11-13T00:09:30.942Z,2.98
2016-11-13T00:10:44.865Z,3.08
2016-11-13T00:11:59.166Z,3.08
2016-11-13T00:13:13.816Z,3.05
2016-11-13T00:14:27.969Z,2.95
2016-11-13T00:15:41.744Z,2.98
2016-11-13T00:16:56.473Z,2.97
2016-11-13T00:18:10.572Z,2.95
2016-11-13T00:19:24.948Z,3
2016-11-13T00:20:38.780Z,2.88
2016-11-13T00:21:52.363Z,2.88
2016-11-13T00:23:06.159Z,2.95
2016-11-13T00:24:20.029Z,3
2016-11-13T00:25:33.753Z,2.98
2016-11-13T00:26:47.300Z,2.97
2016-11-13T00:28:00.753Z,2.98
2016-11-13T00:29:14.742Z,2.98
2016-11-13T00:30:28.517Z,2.95
2016-11-13T00:31:42.456Z,3.01
2016-11-13T00:32:57.638Z,2.98
2016-11-13T00:34:11.829Z,3
2016-11-13T00:35:25.715Z,3.03
2016-11-13T00:36:39.445Z,2.91
2016-11-13T00:37:53.681Z,2.95
2016-11-13T00:39:07.850Z,2.95
2016-11-13T00:40:21.986Z,2.9
2016-11-13T00:41:36.187Z,2.94
2016-11-13T00:43:04.784Z,3.05
2016-11-13T00:44:34.481Z,2.95
2016-11-13T00:45:48.229Z,2.93
2016-11-13T00:47:01.786Z,2.94
2016-11-13T00:48:15.555Z,2.95
2016-11-13T00:49:29.811Z,2.95
2016-11-13T00:50:45.027Z,2.97
2016-11-13T00:51:58.829Z,2.98
2016-11-13T00:53:13.695Z,2.95
2016-11-13T00:54:27.981Z,2.94
2016-11-13T00:55:42.416Z,2.82
2016-11-13T00:56:56.533Z,2.82
2016-11-13T00:58:11.207Z,2.94
2016-11-13T00:59:25.923Z,2.93
2016-11-13T01:00:39.969Z,2.91
2016-11-13T01:02:08.750Z,2.98
2016-11-13T01:03:23.019Z,2.91
2016-11-13T01:04:37.052Z,2.9
2016-11-13T01:05:50.914Z,2.83
2016-11-13T01:07:05.113Z,2.77
2016-11-13T01:08:18.845Z,2.72
2016-11-13T01:09:33.109Z,2.68
2016-11-13T01:10:47.240Z,2.73
2016-11-13T01:12:00.758Z,2.73
2016-11-13T01:13:15.380Z,2.73
2016-11-13T01:14:29.035Z,2.75
2016-11-13T01:15:43.358Z,2.68
2016-11-13T01:16:57.019Z,2.69
2016-11-13T01:18:10.860Z,2.65
2016-11-13T01:19:25.237Z,2.69
2016-11-13T01:20:39.067Z,2.64
2016-11-13T01:21:53.171Z,2.58
2016-11-13T01:23:07.074Z,2.57
2016-11-13T01:24:21.330Z,2.51
2016-11-13T01:25:37.682Z,2.37
2016-11-13T01:26:51.610Z,2.36
2016-11-13T01:28:05.332Z,2.36
2016-11-13T01:29:19.440Z,2.52
2016-11-13T01:30:33.072Z,2.51
2016-11-13T01:31:46.980Z,2.51
2016-11-13T01:33:00.816Z,2.39
2016-11-13T01:34:14.813Z,2.4
2016-11-13T01:35:29.069Z,2.37
2016-11-13T01:36:42.904Z,2.43
2016-11-13T01:37:56.600Z,2.4
2016-11-13T01:39:10.588Z,2.41
2016-11-13T01:40:24.305Z,2.44
2016-11-13T01:41:38.112Z,2.5
2016-11-13T01:42:52.110Z,2.51
2016-11-13T01:44:05.887Z,2.44
2016-11-13T01:45:19.379Z,2.43
2016-11-13T01:46:33.242Z,2.46
2016-11-13T01:47:47.576Z,2.5
2016-11-13T01:49:01.772Z,2.59
2016-11-13T01:53:18.927Z,2.58
2016-11-13T01:54:32.634Z,2.68
2016-11-13T01:55:46.525Z,2.69
2016-11-13T01:57:00.341Z,2.7
2016-11-13T01:58:14.367Z,2.77
2016-11-13T01:59:28.493Z,2.68
2016-11-13T02:00:42.448Z,2.76
2016-11-13T02:01:56.842Z,2.75
2016-11-13T02:03:13.218Z,2.73
2016-11-13T02:04:27.403Z,2.76
2016-11-13T02:05:41.261Z,2.91
2016-11-13T02:06:55.245Z,2.88
2016-11-13T02:08:09.182Z,2.95
2016-11-13T02:09:23.265Z,2.8
2016-11-13T02:10:37.365Z,2.87
2016-11-13T02:11:51.264Z,2.75
2016-11-13T02:13:04.994Z,2.77
2016-11-13T02:14:19.223Z,2.79
2016-11-13T02:15:33.088Z,2.87
2016-11-13T02:16:47.228Z,2.88
2016-11-13T02:18:01.405Z,2.91
2016-11-13T02:19:15.255Z,2.97
2016-11-13T02:20:29.326Z,2.79
2016-11-13T02:21:43.228Z,2.87
2016-11-13T02:22:57.696Z,2.85
2016-11-13T02:24:11.484Z,2.87
2016-11-13T02:25:25.435Z,2.97
2016-11-13T02:26:39.696Z,2.91
2016-11-13T02:27:55.723Z,2.95
2016-11-13T02:29:26.527Z,3.05
2016-11-13T02:30:41.011Z,3.03
2016-11-13T02:32:09.825Z,2.97
2016-11-13T02:33:23.660Z,2.88
2016-11-13T02:34:37.306Z,2.88
2016-11-13T02:35:51.719Z,2.95
2016-11-13T02:37:06.130Z,2.97
2016-11-13T02:38:20.329Z,2.97
2016-11-13T02:39:34.442Z,2.93
2016-11-13T02:40:48.123Z,2.82
2016-11-13T02:42:02.086Z,2.82
2016-11-13T02:43:16.172Z,2.91
2016-11-13T02:44:32.472Z,2.91
2016-11-13T02:45:46.261Z,2.94
2016-11-13T02:47:00.668Z,2.93
2016-11-13T02:48:14.375Z,2.93
2016-11-13T02:49:27.999Z,2.88
2016-11-13T02:50:41.954Z,2.87
2016-11-13T02:51:56.095Z,2.73
2016-11-13T02:53:10.496Z,2.73
2016-11-13T02:54:24.875Z,2.7
2016-11-13T02:55:39.137Z,2.7
2016-11-13T02:56:53.286Z,2.75
2016-11-13T02:58:07.853Z,2.73
2016-11-13T02:59:43.676Z,2.79
2016-11-13T03:01:09.521Z,2.69
2016-11-13T03:02:45.858Z,2.68
2016-11-13T03:04:09.232Z,2.73
2016-11-13T03:05:34.159Z,2.73
2016-11-13T03:06:58.486Z,2.69
2016-11-13T03:08:18.043Z,2.58
2016-11-13T03:09:39.564Z,2.58
2016-11-13T03:10:56.733Z,2.65
2016-11-13T03:12:12.956Z,2.54
2016-11-13T03:13:27.545Z,2.58
2016-11-13T03:14:41.526Z,2.65
2016-11-13T03:15:55.360Z,2.7
2016-11-13T03:17:09.071Z,2.65
2016-11-13T03:18:22.853Z,2.59
2016-11-13T03:19:37.150Z,2.54
2016-11-13T03:20:51.276Z,2.68
2016-11-13T03:22:04.856Z,2.58
2016-11-13T03:23:18.731Z,2.54
2016-11-13T03:24:32.503Z,2.57
2016-11-13T03:25:46.514Z,2.57
2016-11-13T03:27:00.596Z,2.59
2016-11-13T03:28:14.723Z,2.57
2016-11-13T03:29:31.765Z,2.57
2016-11-13T03:30:51.532Z,2.55
2016-11-13T03:32:09.116Z,2.5
2016-11-13T03:33:26.783Z,2.54
2016-11-13T03:34:55.616Z,2.57
2016-11-13T03:36:09.416Z,2.52
2016-11-13T03:38:52.103Z,2.57
2016-11-13T03:40:05.838Z,2.62
2016-11-13T03:41:19.567Z,2.65
2016-11-13T03:42:34.171Z,2.65
2016-11-13T03:43:48.233Z,2.51
2016-11-13T03:45:01.776Z,2.58
2016-11-13T03:46:15.705Z,2.54
2016-11-13T03:47:29.733Z,2.57
2016-11-13T03:48:43.826Z,2.55
2016-11-13T03:49:57.785Z,2.52
2016-11-13T03:51:11.633Z,2.58
2016-11-13T03:52:25.775Z,2.55
2016-11-13T03:53:39.404Z,2.73
2016-11-13T03:54:53.285Z,2.69
2016-11-13T03:56:07.312Z,2.75
2016-11-13T03:57:21.191Z,2.76
2016-11-13T03:58:35.411Z,2.73
2016-11-13T03:59:49.218Z,2.59
2016-11-13T04:01:03.483Z,2.73
2016-11-13T04:02:18.122Z,2.72
2016-11-13T04:03:34.510Z,2.73
2016-11-13T04:04:48.551Z,2.69
2016-11-13T04:06:02.353Z,2.73
2016-11-13T04:07:17.129Z,2.72
2016-11-13T04:08:31.154Z,2.7
2016-11-13T04:09:45.304Z,2.57
2016-11-13T04:10:59.275Z,2.64
2016-11-13T04:12:13.026Z,2.7
2016-11-13T04:13:27.077Z,2.59
2016-11-13T04:14:41.211Z,2.62
2016-11-13T04:15:54.863Z,2.72
2016-11-13T04:17:09.100Z,2.75
2016-11-13T04:18:23.147Z,2.73
2016-11-13T04:19:37.390Z,2.69
2016-11-13T04:20:51.836Z,2.75
2016-11-13T04:22:06.249Z,2.77
2016-11-13T04:23:20.424Z,2.76
2016-11-13T04:24:34.845Z,2.8
2016-11-13T04:25:49.257Z,2.87
2016-11-13T04:27:02.929Z,2.88
2016-11-13T04:28:31.843Z,2.9
2016-11-13T04:29:45.560Z,2.94
2016-11-13T04:30:59.955Z,2.79
2016-11-13T04:32:13.733Z,2.75
2016-11-13T04:33:27.211Z,2.73
2016-11-13T04:34:41.111Z,2.62
2016-11-13T04:35:55.239Z,2.55
2016-11-13T04:37:09.396Z,2.57
2016-11-13T04:38:23.407Z,2.55
2016-11-13T04:39:37.275Z,2.55
2016-11-13T04:40:51.026Z,2.68
2016-11-13T04:42:05.288Z,2.65
2016-11-13T04:43:19.205Z,2.64
2016-11-13T04:44:33.174Z,2.51
2016-11-13T04:45:46.867Z,2.51
2016-11-13T04:47:00.876Z,2.52
2016-11-13T04:48:14.776Z,2.68
2016-11-13T04:49:29.269Z,2.58
2016-11-13T04:50:42.992Z,2.57
2016-11-13T04:51:56.849Z,2.73
2016-11-13T04:53:12.291Z,2.68
2016-11-13T04:54:26.393Z,2.68
2016-11-13T04:55:40.684Z,2.69
2016-11-13T04:56:54.578Z,2.65
2016-11-13T04:58:08.302Z,2.73
2016-11-13T04:59:22.130Z,2.69
2016-11-13T05:00:36.016Z,2.7
2016-11-13T05:01:50.537Z,2.72
2016-11-13T05:03:04.659Z,2.68
2016-11-13T05:04:18.457Z,2.76
2016-11-13T05:05:32.176Z,2.7
2016-11-13T05:06:45.978Z,2.65
2016-11-13T05:08:00.569Z,2.72
2016-11-13T05:09:14.284Z,2.69
2016-11-13T05:10:28.193Z,2.7
2016-11-13T05:11:42.066Z,2.72
2016-11-13T05:12:56.027Z,2.72
2016-11-13T05:14:10.545Z,2.75
2016-11-13T05:15:24.720Z,2.82
2016-11-13T05:16:38.628Z,2.8
2016-11-13T05:17:52.555Z,2.75
2016-11-13T05:19:06.472Z,2.73
2016-11-13T05:20:23.124Z,2.8
2016-11-13T05:21:37.196Z,2.8
2016-11-13T05:22:50.848Z,2.79
2016-11-13T05:24:04.843Z,2.73
2016-11-13T05:25:19.305Z,2.82
2016-11-13T05:26:33.410Z,2.77
2016-11-13T05:27:47.585Z,2.73
2016-11-13T05:29:01.394Z,2.85
2016-11-13T05:30:15.289Z,2.95
2016-11-13T05:31:29.290Z,2.88
2016-11-13T05:32:43.378Z,2.88
2016-11-13T05:33:57.537Z,2.77
2016-11-13T05:35:11.236Z,2.73
2016-11-13T05:36:24.957Z,2.76
2016-11-13T05:37:38.751Z,2.77
2016-11-13T05:38:52.927Z,2.88
2016-11-13T05:40:06.969Z,2.87
2016-11-13T05:41:20.780Z,2.88
2016-11-13T05:42:34.558Z,2.82
2016-11-13T05:43:48.528Z,2.95
2016-11-13T05:45:02.742Z,2.98
2016-11-13T05:46:16.851Z,2.91
2016-11-13T05:47:30.800Z,2.95
2016-11-13T05:48:44.544Z,2.87
2016-11-13T05:49:58.527Z,2.77
2016-11-13T05:51:12.822Z,2.7
2016-11-13T05:52:42.151Z,2.7
2016-11-13T05:53:56.249Z,2.69
2016-11-13T05:55:10.923Z,2.72
2016-11-13T05:56:24.888Z,2.73
2016-11-13T05:57:39.244Z,2.76
2016-11-13T05:58:53.565Z,2.77
2016-11-13T06:00:07.403Z,2.77
2016-11-13T06:01:21.235Z,2.94
2016-11-13T06:02:35.292Z,2.9
2016-11-13T06:03:49.542Z,2.8
2016-11-13T06:05:04.153Z,2.9
2016-11-13T06:06:17.956Z,2.91
2016-11-13T06:07:31.813Z,2.93
2016-11-13T06:08:45.798Z,3.06
2016-11-13T06:12:42.520Z,3.11
2016-11-13T06:13:56.230Z,3.05
2016-11-13T06:15:10.211Z,3.09
2016-11-13T06:16:23.995Z,3.15
2016-11-13T06:17:38.357Z,3
2016-11-13T06:18:52.168Z,3.05
2016-11-13T06:20:05.839Z,3.13
2016-11-13T06:21:19.586Z,3.12
2016-11-13T06:22:33.762Z,3.09
2016-11-13T06:23:47.952Z,2.97
2016-11-13T06:25:01.959Z,2.95
2016-11-13T06:26:16.260Z,3.05
2016-11-13T06:27:30.788Z,3.03
2016-11-13T06:28:44.971Z,3.09
2016-11-13T06:29:59.229Z,3.03
2016-11-13T06:31:13.070Z,3.11
2016-11-13T06:32:26.650Z,3.06
2016-11-13T06:33:40.943Z,3.13
2016-11-13T06:34:55.162Z,3.15
2016-11-13T06:36:09.382Z,3.15
2016-11-13T06:37:23.292Z,3.15
2016-11-13T06:38:39.661Z,3.12
2016-11-13T06:39:53.704Z,3.12
2016-11-13T06:41:07.576Z,3.18
2016-11-13T06:42:21.685Z,3.11
2016-11-13T06:43:35.596Z,3.18
2016-11-13T06:44:49.576Z,3.37
2016-11-13T06:46:18.514Z,4.04
2016-11-13T06:47:32.548Z,3.68
2016-11-13T06:48:46.760Z,3.33
2016-11-13T06:50:00.580Z,3.27
2016-11-13T06:51:14.527Z,3.21
2016-11-13T06:52:28.470Z,3.24
2016-11-13T06:53:42.690Z,3.24
2016-11-13T06:54:57.273Z,3.24
2016-11-13T06:56:11.277Z,3.36
2016-11-13T06:57:25.277Z,3.29
2016-11-13T06:58:39.851Z,3.29
2016-11-13T06:59:54.301Z,3.29
2016-11-13T07:01:08.683Z,3.19
2016-11-13T07:02:22.442Z,3.13
2016-11-13T07:03:36.281Z,3.13
2016-11-13T07:04:50.524Z,3.15
2016-11-13T07:06:04.509Z,3.16
2016-11-13T07:07:18.802Z,3.11
2016-11-13T07:08:32.718Z,3.21
2016-11-13T07:09:46.889Z,3.21
2016-11-13T07:11:00.992Z,3.26
2016-11-13T07:12:14.756Z,3.22
2016-11-13T07:13:33.305Z,3.22
2016-11-13T07:14:47.609Z,3.31
2016-11-13T07:16:01.906Z,3.29
2016-11-13T07:17:16.481Z,3.24
2016-11-13T07:18:30.319Z,3.3
2016-11-13T07:19:44.467Z,3.3
2016-11-13T07:20:58.572Z,3.29
2016-11-13T07:22:12.729Z,3.26
2016-11-13T07:23:27.622Z,3.19
2016-11-13T07:24:41.736Z,3.19
2016-11-13T07:25:56.133Z,3.19
2016-11-13T07:27:09.814Z,3.19
2016-11-13T07:28:23.659Z,3.21
2016-11-13T07:29:37.710Z,3.08
2016-11-13T07:30:51.242Z,3.16
2016-11-13T07:32:05.208Z,3.15
2016-11-13T07:33:18.982Z,3.22
2016-11-13T07:34:32.593Z,3.24
2016-11-13T07:36:01.614Z,3.27
2016-11-13T07:37:15.491Z,3.27
2016-11-13T07:38:29.540Z,3.26
2016-11-13T07:39:44.227Z,3.34
2016-11-13T07:40:58.737Z,3.31
2016-11-13T07:42:13.660Z,3.24
2016-11-13T07:43:27.841Z,3.24
2016-11-13T07:44:41.871Z,3.27
2016-11-13T07:45:55.428Z,3.36
2016-11-13T07:48:38.389Z,3.58
2016-11-13T07:49:52.224Z,3.52
2016-11-13T07:51:06.287Z,3.55
2016-11-13T07:52:20.575Z,3.49
2016-11-13T07:53:34.647Z,3.58
2016-11-13T07:54:48.488Z,3.61
2016-11-13T07:56:05.099Z,3.59
2016-11-13T07:57:18.946Z,3.68
2016-11-13T07:58:33.349Z,3.66
2016-11-13T07:59:47.257Z,3.64
2016-11-13T08:01:01.355Z,3.55
2016-11-13T08:02:15.264Z,3.56
2016-11-13T08:03:30.158Z,3.55
2016-11-13T08:04:44.807Z,3.58
2016-11-13T08:05:58.798Z,3.55
2016-11-13T08:07:12.760Z,3.61
2016-11-13T08:08:26.955Z,3.55
2016-11-13T08:09:40.912Z,3.53
2016-11-13T08:10:55.503Z,3.55
2016-11-13T08:12:09.820Z,3.52
2016-11-13T08:13:23.679Z,3.55
2016-11-13T08:14:37.906Z,3.66
2016-11-13T08:15:52.217Z,3.64
2016-11-13T08:17:06.355Z,3.59
2016-11-13T08:18:20.631Z,3.73
2016-11-13T08:19:49.485Z,3.78
2016-11-13T08:21:03.179Z,3.84
2016-11-13T08:22:17.357Z,3.74
2016-11-13T08:23:31.600Z,3.96
2016-11-13T08:24:46.172Z,3.96
2016-11-13T08:26:00.050Z,3.99
2016-11-13T08:27:14.219Z,3.96
2016-11-13T08:29:32.286Z,4.2
2016-11-13T08:31:01.684Z,4.28
2016-11-13T08:32:15.593Z,4.25
2016-11-13T08:33:29.587Z,4.25
2016-11-13T08:34:43.839Z,4.32
2016-11-13T08:35:57.880Z,4.53
2016-11-13T08:37:13.394Z,4.5
2016-11-13T08:38:27.930Z,4.61
2016-11-13T08:39:41.988Z,4.63
2016-11-13T08:41:10.728Z,4.5
2016-11-13T08:42:24.796Z,4.58
2016-11-13T08:43:39.207Z,4.71
2016-11-13T08:44:53.350Z,4.68
2016-11-13T08:46:07.043Z,4.78
2016-11-13T08:47:20.550Z,4.76
2016-11-13T08:48:34.581Z,4.66
2016-11-13T08:49:49.008Z,4.63
2016-11-13T08:51:03.073Z,4.53
2016-11-13T08:52:16.802Z,4.56
2016-11-13T08:53:31.519Z,4.5
2016-11-13T08:54:46.808Z,4.46
2016-11-13T08:56:01.777Z,4.49
2016-11-13T08:57:16.717Z,4.56
2016-11-13T08:58:30.980Z,4.53
2016-11-13T08:59:44.614Z,4.42
2016-11-13T09:00:58.838Z,4.52
2016-11-13T09:02:13.679Z,4.39
2016-11-13T09:03:27.338Z,4.32
2016-11-13T09:04:41.727Z,4.32
2016-11-13T09:05:55.496Z,4.48
2016-11-13T09:07:09.376Z,4.4
2016-11-13T09:08:23.526Z,4.5
2016-11-13T09:09:37.368Z,4.46
2016-11-13T09:10:51.994Z,4.46
2016-11-13T09:12:06.109Z,4.48
2016-11-13T09:13:20.021Z,4.43
2016-11-13T09:14:36.130Z,4.48
2016-11-13T09:15:50.229Z,4.53
2016-11-13T09:17:04.402Z,4.64
2016-11-13T09:18:18.582Z,4.84
2016-11-13T09:19:32.360Z,4.89
2016-11-13T09:20:46.265Z,5.05
2016-11-13T09:22:00.453Z,4.9
2016-11-13T09:23:14.416Z,4.95
2016-11-13T09:24:28.901Z,4.94
2016-11-13T09:25:42.837Z,5.01
2016-11-13T09:26:56.948Z,4.94
2016-11-13T09:28:11.433Z,4.9
2016-11-13T09:29:25.704Z,4.87
2016-11-13T09:30:39.766Z,4.76
2016-11-13T09:31:54.075Z,4.64
2016-11-13T09:33:08.234Z,4.63
2016-11-13T09:34:22.177Z,4.83
2016-11-13T09:35:36.495Z,4.84
2016-11-13T09:36:50.533Z,4.89
2016-11-13T09:38:04.612Z,4.82
2016-11-13T09:39:18.896Z,4.86
2016-11-13T09:40:32.652Z,4.68
2016-11-13T09:41:46.416Z,4.56
2016-11-13T09:42:59.885Z,4.5
2016-11-13T09:44:13.707Z,4.68
2016-11-13T09:45:27.842Z,4.78
2016-11-13T09:46:41.713Z,4.89
2016-11-13T09:47:55.551Z,4.83
2016-11-13T09:49:09.011Z,4.74
2016-11-13T09:50:23.145Z,4.71
2016-11-13T09:51:37.012Z,4.84
2016-11-13T09:52:50.827Z,4.98
2016-11-13T09:54:04.559Z,5.12
2016-11-13T09:55:18.390Z,5.18
2016-11-13T09:56:32.053Z,5.2
2016-11-13T09:57:46.220Z,5.25
2016-11-13T09:58:59.940Z,5.31
2016-11-13T10:00:13.671Z,5.18
2016-11-13T10:01:27.611Z,5.15
2016-11-13T10:02:42.233Z,4.92
2016-11-13T10:03:57.405Z,4.98
2016-11-13T10:05:27.183Z,5.12
2016-11-13T10:06:41.226Z,5.04
2016-11-13T10:07:55.215Z,4.89
2016-11-13T10:09:10.068Z,4.84
2016-11-13T10:10:24.035Z,4.86
2016-11-13T10:11:38.075Z,4.94
2016-11-13T10:12:52.554Z,4.95
2016-11-13T10:14:06.995Z,5.02
2016-11-13T10:15:21.413Z,5.19
2016-11-13T10:16:35.723Z,5.31
2016-11-13T10:18:04.204Z,5.22
2016-11-13T10:19:18.290Z,5.2
2016-11-13T10:20:32.238Z,5.18
2016-11-13T10:21:46.240Z,5.25
2016-11-13T10:23:00.510Z,5.33
2016-11-13T10:24:14.274Z,5.29
2016-11-13T10:25:28.054Z,5.38
2016-11-13T10:26:42.254Z,5.31
2016-11-13T10:27:56.582Z,5.41
2016-11-13T10:29:10.709Z,5.34
2016-11-13T10:30:25.071Z,5.38
2016-11-13T10:31:41.081Z,5.28
2016-11-13T10:32:54.832Z,5.46
2016-11-13T10:34:09.248Z,5.41
2016-11-13T10:35:23.081Z,5.54
2016-11-13T10:36:36.959Z,5.58
2016-11-13T10:37:50.861Z,5.65
2016-11-13T10:39:04.641Z,5.72
2016-11-13T10:40:19.237Z,5.49
2016-11-13T10:41:33.787Z,5.56
2016-11-13T10:42:48.259Z,5.51
2016-11-13T10:44:02.259Z,5.55
2016-11-13T10:45:15.957Z,5.54
2016-11-13T10:46:30.321Z,5.7
2016-11-13T10:47:44.272Z,5.8
2016-11-13T10:48:58.313Z,5.87
2016-11-13T10:50:12.329Z,5.9
2016-11-13T10:51:26.006Z,5.84
2016-11-13T10:52:55.184Z,5.91
2016-11-13T10:54:09.937Z,6.07
2016-11-13T10:55:24.038Z,5.92
2016-11-13T10:56:38.416Z,5.95
2016-11-13T10:57:53.802Z,6.06
2016-11-13T10:59:09.347Z,5.97
2016-11-13T11:00:23.732Z,5.9
2016-11-13T11:01:38.468Z,5.91
2016-11-13T11:02:52.981Z,5.91
2016-11-13T11:04:09.090Z,5.9
2016-11-13T11:05:23.274Z,5.84
2016-11-13T11:06:37.446Z,5.94
2016-11-13T11:07:51.386Z,5.83
2016-11-13T11:09:05.402Z,5.91
2016-11-13T11:10:19.781Z,5.84
2016-11-13T11:11:34.333Z,5.84
2016-11-13T11:12:48.753Z,5.94
2016-11-13T11:14:02.652Z,5.92
2016-11-13T11:15:17.678Z,5.88
2016-11-13T11:16:31.787Z,5.83
2016-11-13T11:17:46.642Z,5.8
2016-11-13T11:19:00.763Z,5.77
2016-11-13T11:20:30.472Z,5.72
2016-11-13T11:21:44.335Z,5.69
2016-11-13T11:22:58.855Z,5.79
2016-11-13T11:24:13.182Z,5.74
2016-11-13T11:25:27.469Z,5.74
2016-11-13T11:26:41.986Z,5.7
2016-11-13T11:27:57.014Z,5.83
2016-11-13T11:30:40.569Z,5.8
2016-11-13T11:31:55.541Z,5.84
2016-11-13T11:33:09.202Z,5.94
2016-11-13T11:34:38.734Z,5.91
2016-11-13T11:36:08.932Z,5.9
2016-11-13T11:37:23.657Z,6.09
2016-11-13T11:38:37.799Z,6.17
2016-11-13T11:39:52.340Z,6.13
2016-11-13T11:41:06.273Z,6.28
2016-11-13T11:42:20.570Z,6.29
2016-11-13T11:43:36.149Z,6.26
2016-11-13T11:44:51.334Z,6.32
2016-11-13T11:46:05.192Z,6.38
2016-11-13T11:47:19.033Z,6.43
2016-11-13T11:48:33.079Z,6.47
2016-11-13T11:50:05.059Z,6.64
2016-11-13T11:51:19.040Z,6.74
2016-11-13T11:52:33.154Z,6.54
2016-11-13T11:53:47.359Z,6.59
2016-11-13T11:55:16.100Z,6.56
2016-11-13T11:56:46.030Z,6.57
2016-11-13T11:58:00.897Z,6.56
2016-11-13T11:59:16.189Z,6.6
2016-11-13T12:00:31.639Z,6.43
2016-11-13T12:01:47.273Z,6.17
2016-11-13T12:03:01.612Z,6.25
2016-11-13T12:04:16.892Z,6.32
2016-11-13T12:05:31.545Z,6.28
2016-11-13T12:06:45.910Z,6.16
2016-11-13T12:08:00.718Z,6.2
2016-11-13T12:09:14.735Z,6.26
2016-11-13T12:10:29.248Z,6.39
2016-11-13T12:11:43.621Z,6.34
2016-11-13T12:12:58.383Z,6.28
2016-11-13T12:14:13.727Z,6.35
2016-11-13T12:15:27.472Z,6.44
2016-11-13T12:16:41.615Z,6.35
2016-11-13T12:17:55.985Z,6.12
2016-11-13T12:19:25.442Z,6.25
2016-11-13T12:20:54.504Z,6.28
2016-11-13T12:22:08.452Z,6.34
2016-11-13T12:23:22.548Z,6.52
2016-11-13T12:24:51.018Z,6.53
2016-11-13T12:26:04.880Z,6.56
2016-11-13T12:27:19.117Z,6.53
2016-11-13T12:28:33.272Z,6.44
2016-11-13T12:29:47.149Z,6.39
2016-11-13T12:31:00.791Z,6.29
2016-11-13T12:32:14.628Z,6.19
2016-11-13T12:33:28.632Z,6.13
2016-11-13T12:34:43.104Z,5.94
2016-11-13T12:35:57.218Z,5.94
2016-11-13T12:37:11.132Z,6.01
2016-11-13T12:38:25.599Z,5.88
2016-11-13T12:39:39.490Z,5.91
2016-11-13T12:41:22.656Z,5.91
2016-11-13T12:42:51.241Z,5.92
2016-11-13T12:44:05.925Z,5.98
2016-11-13T12:45:20.262Z,5.88
2016-11-13T12:46:34.676Z,5.95
2016-11-13T12:47:48.427Z,6.02
2016-11-13T12:49:02.432Z,5.95
2016-11-13T12:50:16.031Z,5.99
2016-11-13T12:51:30.612Z,5.99
2016-11-13T12:52:44.572Z,5.97
2016-11-13T12:53:58.436Z,5.99
2016-11-13T12:55:13.868Z,6.02
2016-11-13T12:56:27.883Z,6.09
2016-11-13T12:57:42.108Z,6.01
2016-11-13T12:59:11.110Z,6.05
2016-11-13T13:00:25.530Z,5.92
2016-11-13T13:01:40.000Z,5.98
2016-11-13T13:02:54.385Z,5.98
2016-11-13T13:04:08.416Z,5.97
2016-11-13T13:05:37.401Z,5.98
2016-11-13T13:06:51.467Z,5.87
2016-11-13T13:08:05.522Z,5.9
2016-11-13T13:09:21.835Z,5.76
2016-11-13T13:10:36.878Z,5.81
2016-11-13T13:11:50.685Z,5.81
2016-11-13T13:13:19.278Z,5.87
2016-11-13T13:14:34.245Z,5.98
2016-11-13T13:15:47.890Z,6.01
2016-11-13T13:17:02.198Z,6.01
2016-11-13T13:19:44.483Z,6.05
2016-11-13T13:20:59.541Z,6.1
2016-11-13T13:22:14.593Z,6.17
2016-11-13T13:23:28.709Z,6.26
2016-11-13T13:26:26.122Z,6.25
2016-11-13T13:27:39.904Z,6.41
2016-11-13T13:28:53.616Z,6.34
2016-11-13T13:30:22.133Z,6.41
2016-11-13T13:31:36.832Z,6.49
2016-11-13T13:32:51.244Z,6.5
2016-11-13T13:34:05.152Z,6.53
2016-11-13T13:35:19.024Z,6.54
2016-11-13T13:36:33.564Z,6.65
2016-11-13T13:37:47.736Z,6.57
2016-11-13T13:39:02.528Z,6.54
2016-11-13T13:40:16.791Z,6.57
2016-11-13T13:41:30.820Z,6.44
2016-11-13T13:42:44.909Z,6.5
2016-11-13T13:43:58.828Z,6.43
2016-11-13T13:45:13.373Z,6.43
2016-11-13T13:46:27.652Z,6.44
2016-11-13T13:47:56.237Z,6.39
2016-11-13T13:49:10.324Z,6.26
2016-11-13T13:50:24.613Z,6.25
2016-11-13T13:51:38.997Z,6.13
2016-11-13T13:52:53.117Z,6.22
2016-11-13T13:54:07.020Z,6.25
2016-11-13T13:55:20.726Z,6.32
2016-11-13T13:56:34.985Z,6.32
2016-11-13T13:57:50.024Z,6.22
2016-11-13T13:59:03.771Z,6.32
2016-11-13T14:00:17.865Z,6.29
2016-11-13T14:01:32.104Z,6.32
2016-11-13T14:02:46.475Z,6.29
2016-11-13T14:04:00.706Z,6.43
2016-11-13T14:05:17.529Z,6.44
2016-11-13T14:06:31.396Z,6.46
2016-11-13T14:07:45.192Z,6.46
2016-11-13T14:08:59.518Z,6.43
2016-11-13T14:10:15.125Z,6.47
2016-11-13T14:11:31.879Z,6.52
2016-11-13T14:12:47.203Z,6.46
2016-11-13T14:14:03.865Z,6.52
2016-11-13T14:15:24.313Z,6.43
2016-11-13T14:16:54.918Z,6.31
2016-11-13T14:18:08.790Z,6.38
2016-11-13T14:19:23.090Z,6.41
2016-11-13T14:20:38.267Z,6.35
2016-11-13T14:21:53.570Z,6.26
2016-11-13T14:23:08.475Z,6.2
2016-11-13T14:24:22.872Z,6.19
2016-11-13T14:25:37.476Z,6.22
2016-11-13T14:26:51.736Z,6.16
2016-11-13T14:28:07.764Z,6.1
2016-11-13T14:29:36.625Z,6.2
2016-11-13T14:30:50.637Z,6.19
2016-11-13T14:32:04.805Z,6.22
2016-11-13T14:33:19.069Z,6.13
2016-11-13T14:34:33.160Z,6.16
2016-11-13T14:35:46.773Z,6.13
2016-11-13T14:37:00.768Z,6.17
2016-11-13T14:38:14.880Z,6.09
2016-11-13T14:39:29.694Z,6.15
2016-11-13T14:40:43.693Z,6.01
2016-11-13T14:42:03.281Z,6.06
2016-11-13T14:43:22.261Z,6.1
2016-11-13T14:44:36.510Z,6.09
2016-11-13T14:46:05.902Z,6.02
2016-11-13T14:47:19.609Z,6.07
2016-11-13T14:48:49.187Z,6.05
2016-11-13T14:50:03.297Z,6.02
2016-11-13T14:51:17.877Z,6.01
2016-11-13T14:52:33.218Z,5.97
2016-11-13T14:53:47.513Z,5.92
2016-11-13T14:55:01.169Z,5.84
2016-11-13T14:56:15.453Z,5.74
2016-11-13T14:57:29.404Z,5.88
2016-11-13T14:58:44.532Z,5.79
2016-11-13T15:00:15.317Z,5.81
2016-11-13T15:01:29.897Z,5.84
2016-11-13T15:02:45.058Z,5.76
2016-11-13T15:03:59.378Z,5.87
2016-11-13T15:05:13.017Z,5.79
2016-11-13T15:06:26.683Z,5.8
2016-11-13T15:07:41.892Z,5.84
2016-11-13T15:08:57.378Z,5.76
2016-11-13T15:10:11.482Z,5.81
2016-11-13T15:11:25.271Z,5.8
2016-11-13T15:12:39.621Z,5.7
2016-11-13T15:13:54.940Z,5.69
2016-11-13T15:15:09.199Z,5.56
2016-11-13T15:16:24.455Z,5.55
2016-11-13T15:17:41.363Z,5.55
2016-11-13T15:18:58.185Z,5.54
2016-11-13T15:20:14.470Z,5.49
2016-11-13T15:21:28.320Z,5.43
2016-11-13T15:22:42.119Z,5.44
2016-11-13T15:23:56.461Z,5.52
2016-11-13T15:25:10.190Z,5.55
2016-11-13T15:26:24.271Z,5.59
2016-11-13T15:27:39.027Z,5.46
2016-11-13T15:28:53.687Z,5.43
2016-11-13T15:30:07.312Z,5.44
2016-11-13T15:31:20.885Z,5.43
2016-11-13T15:32:34.798Z,5.43
2016-11-13T15:33:48.617Z,5.43
2016-11-13T15:35:02.847Z,5.44
2016-11-13T15:36:16.899Z,5.43
2016-11-13T15:37:30.586Z,5.43
2016-11-13T15:38:44.486Z,5.4
2016-11-13T15:40:13.294Z,5.43
2016-11-13T15:41:29.182Z,5.37
2016-11-13T15:42:42.994Z,5.37
2016-11-13T15:43:58.504Z,5.37
2016-11-13T15:45:12.705Z,5.4
2016-11-13T15:46:31.739Z,5.33
2016-11-13T15:47:46.684Z,5.34
2016-11-13T19:28:40.720Z,4.97
2016-11-13T19:30:11.833Z,4.63
2016-11-13T19:31:55.215Z,4.42
2016-11-13T19:33:09.355Z,4.14
2016-11-13T19:34:24.364Z,4.03
2016-11-13T19:35:53.170Z,3.88
2016-11-13T19:37:07.170Z,3.84
2016-11-13T19:38:21.097Z,3.89
2016-11-13T19:39:35.180Z,3.85
2016-11-13T19:40:49.259Z,3.78
2016-11-13T19:42:03.062Z,3.73
2016-11-13T19:43:17.255Z,3.73
2016-11-13T19:44:31.453Z,3.73
2016-11-13T19:45:45.794Z,3.78
2016-11-13T19:46:59.903Z,3.76
2016-11-13T19:48:13.757Z,3.84
2016-11-13T19:49:29.670Z,3.84
2016-11-13T19:50:43.460Z,3.74
2016-11-13T19:51:57.703Z,3.71
2016-11-13T19:53:26.314Z,3.64
2016-11-13T19:54:40.030Z,3.55
2016-11-13T19:55:53.888Z,3.63
2016-11-13T19:57:08.126Z,3.64
2016-11-13T19:58:21.753Z,3.52
2016-11-13T19:59:35.810Z,3.37
2016-11-13T20:00:49.764Z,3.46
2016-11-13T20:02:04.345Z,3.49
2016-11-13T20:03:19.050Z,3.41
2016-11-13T20:04:33.321Z,3.33
2016-11-13T20:05:49.276Z,3.34
2016-11-13T20:07:03.291Z,3.4
2016-11-13T20:08:17.257Z,3.27
2016-11-13T20:09:32.768Z,3.36
2016-11-13T20:10:46.629Z,3.33
2016-11-13T20:12:00.364Z,3.4
2016-11-13T20:13:14.218Z,3.41
2016-11-13T20:14:28.020Z,3.31
2016-11-13T20:15:42.300Z,3.3
2016-11-13T20:16:56.523Z,3.24
2016-11-13T20:18:10.393Z,3.19
2016-11-13T20:19:24.643Z,3.16
2016-11-13T20:20:38.315Z,3.16
2016-11-13T20:21:52.271Z,3.21
2016-11-13T20:23:06.865Z,3.19
2016-11-13T20:24:20.752Z,3.21
2016-11-13T20:25:34.810Z,3.09
2016-11-13T20:26:49.479Z,3.06
2016-11-13T20:28:03.552Z,3.16
2016-11-13T20:29:17.788Z,3.09
2016-11-13T20:30:31.979Z,3
2016-11-13T20:31:46.061Z,3.01
2016-11-13T20:33:01.346Z,3.05
2016-11-13T20:34:15.580Z,3.09
2016-11-13T20:35:29.461Z,3.12
2016-11-13T20:36:43.848Z,3.15
2016-11-13T20:37:58.630Z,3.12
2016-11-13T20:39:27.359Z,3.13